Time,TemperatureF,DewpointF,PressureIn,WindDirection,WindDirectionDegrees,WindSpeedMPH,WindSpeedGustMPH,Humidity,HourlyPrecipIn,Conditions,Clouds,dailyrainin,SoftwareType,DateUTC
2013-06-14 00:01:00,72.9,65.3,29.83,NNW,335,6.0,9.0,77,0.00,,,0.00,Wunderground v.1.15,2013-06-14 04:01:00,
2013-06-14 00:02:00,72.9,65.3,29.83,NNW,332,9.0,9.0,77,0.00,,,0.00,Wunderground v.1.15,2013-06-14 04:02:00,
2013-06-14 00:03:00,72.9,65.3,29.83,NNW,328,7.0,9.0,77,0.00,,,0.00,Wunderground v.1.15,2013-06-14 04:03:00,
2013-06-14 00:06:00,72.8,65.2,29.84,NNW,340,7.0,8.0,77,0.00,,,0.00,Wunderground v.1.15,2013-06-14 04:06:00,
2013-06-14 00:11:00,72.7,65.1,29.84,North,360,10.0,10.0,77,0.00,,,0.00,Wunderground v.1.15,2013-06-14 04:11:00,
2013-06-14 00:16:00,72.8,65.2,29.84,NNW,338,7.0,8.0,77,0.00,,,0.00,Wunderground v.1.15,2013-06-14 04:16:00,
2013-06-14 00:21:00,72.7,65.1,29.84,NNW,341,6.0,9.0,77,0.00,,,0.00,Wunderground v.1.15,2013-06-14 04:21:00,
2013-06-14 00:26:00,72.5,65.2,29.84,NNW,337,5.0,7.0,78,0.00,,,0.00,Wunderground v.1.15,2013-06-14 04:26:00,
2013-06-14 00:31:00,72.3,65.1,29.84,NNW,348,5.0,7.0,78,0.00,,,0.00,Wunderground v.1.15,2013-06-14 04:31:00,
2013-06-14 00:37:00,72.1,65.2,29.85,NNW,345,6.0,8.0,79,0.00,,,0.00,Wunderground v.1.15,2013-06-14 04:37:00,
2013-06-14 00:42:00,71.9,65.4,29.85,NNW,327,5.0,8.0,80,0.00,,,0.00,Wunderground v.1.15,2013-06-14 04:42:00,
2013-06-14 00:47:00,71.7,65.2,29.85,North,8,7.0,7.0,80,0.00,,,0.00,Wunderground v.1.15,2013-06-14 04:47:00,
2013-06-14 00:52:00,71.6,65.1,29.85,NNW,337,6.0,10.0,80,0.00,,,0.00,Wunderground v.1.15,2013-06-14 04:52:00,
2013-06-14 00:57:00,71.7,65.2,29.86,NW,322,8.0,8.0,80,0.00,,,0.00,Wunderground v.1.15,2013-06-14 04:57:00,
2013-06-14 01:03:00,71.8,64.2,29.86,North,4,10.0,12.0,77,0.00,,,0.00,Wunderground v.1.15,2013-06-14 05:03:00,
2013-06-14 01:08:00,71.8,63.8,29.86,NNW,347,13.0,13.0,76,0.00,,,0.00,Wunderground v.1.15,2013-06-14 05:08:00,
2013-06-14 01:13:00,71.7,63.4,29.86,North,359,10.0,13.0,75,0.00,,,0.00,Wunderground v.1.15,2013-06-14 05:13:00,
2013-06-14 01:18:00,71.9,62.4,29.86,NNW,346,8.0,13.0,72,0.00,,,0.00,Wunderground v.1.15,2013-06-14 05:18:00,
2013-06-14 01:23:00,71.9,62.0,29.87,North,349,10.0,13.0,71,0.00,,,0.00,Wunderground v.1.15,2013-06-14 05:23:00,
2013-06-14 01:29:00,71.8,61.5,29.87,NNW,334,6.0,10.0,70,0.00,,,0.00,Wunderground v.1.15,2013-06-14 05:29:00,
2013-06-14 01:34:00,71.7,61.4,29.86,North,10,7.0,10.0,70,0.00,,,0.00,Wunderground v.1.15,2013-06-14 05:34:00,
2013-06-14 01:39:00,71.6,61.3,29.86,North,10,9.0,9.0,70,0.00,,,0.00,Wunderground v.1.15,2013-06-14 05:39:00,
2013-06-14 01:44:00,71.4,60.7,29.86,NNW,347,5.0,9.0,69,0.00,,,0.00,Wunderground v.1.15,2013-06-14 05:44:00,
2013-06-14 01:49:00,71.3,61.0,29.86,North,1,8.0,8.0,70,0.00,,,0.00,Wunderground v.1.15,2013-06-14 05:49:00,
2013-06-14 01:54:00,71.1,60.8,29.86,North,5,11.0,11.0,70,0.00,,,0.00,Wunderground v.1.15,2013-06-14 05:54:00,
2013-06-14 01:59:00,71.0,60.7,29.85,North,357,9.0,10.0,70,0.00,,,0.00,Wunderground v.1.15,2013-06-14 05:59:00,
2013-06-14 02:04:00,70.8,60.5,29.86,North,3,4.0,11.0,70,0.00,,,0.00,Wunderground v.1.15,2013-06-14 06:04:00,
2013-06-14 02:09:00,70.6,61.1,29.86,NNW,347,3.0,7.0,72,0.00,,,0.00,Wunderground v.1.15,2013-06-14 06:09:00,
2013-06-14 02:14:00,70.4,60.9,29.86,NE,40,1.0,7.0,72,0.00,,,0.00,Wunderground v.1.15,2013-06-14 06:14:00,
2013-06-14 02:19:00,70.3,61.2,29.85,NNE,19,0.0,2.0,73,0.00,,,0.00,Wunderground v.1.15,2013-06-14 06:19:00,
2013-06-14 02:24:00,70.1,60.7,29.86,North,8,3.0,4.0,72,0.00,,,0.00,Wunderground v.1.15,2013-06-14 06:24:00,
2013-06-14 02:29:00,69.9,60.8,29.85,North,10,5.0,7.0,73,0.00,,,0.00,Wunderground v.1.15,2013-06-14 06:29:00,
2013-06-14 02:34:00,69.7,61.0,29.86,North,356,4.0,9.0,74,0.00,,,0.00,Wunderground v.1.15,2013-06-14 06:34:00,
2013-06-14 02:39:00,69.6,60.9,29.86,NNW,344,3.0,7.0,74,0.00,,,0.00,Wunderground v.1.15,2013-06-14 06:39:00,
2013-06-14 02:44:00,69.5,60.8,29.86,North,354,7.0,8.0,74,0.00,,,0.00,Wunderground v.1.15,2013-06-14 06:44:00,
2013-06-14 02:49:00,69.4,60.8,29.85,North,4,6.0,7.0,74,0.00,,,0.00,Wunderground v.1.15,2013-06-14 06:49:00,
2013-06-14 02:54:00,69.2,60.6,29.86,North,358,6.0,9.0,74,0.00,,,0.00,Wunderground v.1.15,2013-06-14 06:54:00,
2013-06-14 02:59:00,69.1,60.8,29.85,North,11,4.0,8.0,75,0.00,,,0.00,Wunderground v.1.15,2013-06-14 06:59:00,
2013-06-14 03:04:00,68.9,61.0,29.86,North,5,4.0,8.0,76,0.00,,,0.00,Wunderground v.1.15,2013-06-14 07:04:00,
2013-06-14 03:09:00,68.8,60.9,29.85,North,8,4.0,6.0,76,0.00,,,0.00,Wunderground v.1.15,2013-06-14 07:09:00,
2013-06-14 03:14:00,68.7,60.8,29.85,North,4,6.0,7.0,76,0.00,,,0.00,Wunderground v.1.15,2013-06-14 07:14:00,
2013-06-14 03:19:00,68.6,60.7,29.85,North,358,7.0,7.0,76,0.00,,,0.00,Wunderground v.1.15,2013-06-14 07:19:00,
2013-06-14 03:24:00,68.4,61.3,29.85,North,353,6.0,7.0,78,0.00,,,0.00,Wunderground v.1.15,2013-06-14 07:24:00,
2013-06-14 03:29:00,68.2,61.4,29.85,North,359,7.0,7.0,79,0.00,,,0.00,Wunderground v.1.15,2013-06-14 07:29:00,
2013-06-14 03:34:00,68.0,60.9,29.85,NNW,341,4.0,7.0,78,0.00,,,0.00,Wunderground v.1.15,2013-06-14 07:34:00,
2013-06-14 03:39:00,67.7,60.6,29.86,NNW,338,2.0,4.0,78,0.00,,,0.00,Wunderground v.1.15,2013-06-14 07:39:00,
2013-06-14 03:44:00,67.6,60.1,29.85,NNW,338,4.0,4.0,77,0.00,,,0.00,Wunderground v.1.15,2013-06-14 07:44:00,
2013-06-14 03:49:00,67.7,60.2,29.85,NNW,336,3.0,5.0,77,0.00,,,0.00,Wunderground v.1.15,2013-06-14 07:49:00,
2013-06-14 03:54:00,67.6,60.1,29.85,NNW,348,1.0,5.0,77,0.00,,,0.00,Wunderground v.1.15,2013-06-14 07:54:00,
2013-06-14 03:59:00,67.4,59.9,29.85,North,2,2.0,3.0,77,0.00,,,0.00,Wunderground v.1.15,2013-06-14 07:59:00,
2013-06-14 04:04:00,67.4,59.9,29.85,NNE,25,2.0,4.0,77,0.00,,,0.00,Wunderground v.1.15,2013-06-14 08:04:00,
2013-06-14 04:09:00,67.6,60.9,29.85,NNE,18,1.0,4.0,79,0.00,,,0.00,Wunderground v.1.15,2013-06-14 08:09:00,
2013-06-14 04:14:00,67.2,60.5,29.85,North,6,3.0,4.0,79,0.00,,,0.00,Wunderground v.1.15,2013-06-14 08:14:00,
2013-06-14 04:19:00,66.9,61.2,29.85,North,360,2.0,4.0,82,0.00,,,0.00,Wunderground v.1.15,2013-06-14 08:19:00,
2013-06-14 04:24:00,66.6,61.6,29.85,NE,37,0.0,4.0,84,0.00,,,0.00,Wunderground v.1.15,2013-06-14 08:24:00,
2013-06-14 04:29:00,66.2,60.5,29.86,North,5,2.0,3.0,82,0.00,,,0.00,Wunderground v.1.15,2013-06-14 08:29:00,
2013-06-14 04:34:00,65.9,60.2,29.85,North,7,3.0,3.0,82,0.00,,,0.00,Wunderground v.1.15,2013-06-14 08:34:00,
2013-06-14 04:39:00,65.7,60.7,29.85,North,9,1.0,3.0,84,0.00,,,0.00,Wunderground v.1.15,2013-06-14 08:39:00,
2013-06-14 04:44:00,65.6,60.6,29.86,North,6,1.0,3.0,84,0.00,,,0.00,Wunderground v.1.15,2013-06-14 08:44:00,
2013-06-14 04:49:00,65.6,60.6,29.86,North,3,1.0,2.0,84,0.00,,,0.00,Wunderground v.1.15,2013-06-14 08:49:00,
2013-06-14 04:54:00,65.5,60.9,29.86,NNE,17,0.0,3.0,85,0.00,,,0.00,Wunderground v.1.15,2013-06-14 08:54:00,
2013-06-14 04:59:00,65.4,60.4,29.87,North,356,0.0,1.0,84,0.00,,,0.00,Wunderground v.1.15,2013-06-14 08:59:00,
2013-06-14 05:04:00,65.2,60.2,29.87,NNW,338,0.0,1.0,84,0.00,,,0.00,Wunderground v.1.15,2013-06-14 09:04:00,
2013-06-14 05:09:00,65.3,60.3,29.87,NNE,13,2.0,2.0,84,0.00,,,0.00,Wunderground v.1.15,2013-06-14 09:09:00,
2013-06-14 05:14:00,65.5,60.5,29.87,North,360,2.0,3.0,84,0.00,,,0.00,Wunderground v.1.15,2013-06-14 09:14:00,
2013-06-14 05:19:00,65.4,60.8,29.87,North,355,1.0,2.0,85,0.00,,,0.00,Wunderground v.1.15,2013-06-14 09:19:00,
2013-06-14 05:24:00,65.2,60.6,29.87,North,356,0.0,2.0,85,0.00,,,0.00,Wunderground v.1.15,2013-06-14 09:24:00,
2013-06-14 05:29:00,64.8,60.5,29.88,WNW,292,1.0,1.0,86,0.00,,,0.00,Wunderground v.1.15,2013-06-14 09:29:00,
2013-06-14 05:34:00,64.6,60.3,29.88,WNW,292,0.0,1.0,86,0.00,,,0.00,Wunderground v.1.15,2013-06-14 09:34:00,
2013-06-14 05:39:00,64.8,59.9,29.88,NW,318,1.0,2.0,84,0.00,,,0.00,Wunderground v.1.15,2013-06-14 09:39:00,
2013-06-14 05:44:00,65.3,60.0,29.88,NNW,342,1.0,3.0,83,0.00,,,0.00,Wunderground v.1.15,2013-06-14 09:44:00,
2013-06-14 05:49:00,65.2,59.9,29.88,NNW,346,2.0,3.0,83,0.00,,,0.00,Wunderground v.1.15,2013-06-14 09:49:00,
2013-06-14 05:54:00,65.4,60.1,29.88,NNW,342,3.0,4.0,83,0.00,,,0.00,Wunderground v.1.15,2013-06-14 09:54:00,
2013-06-14 05:59:00,65.0,60.4,29.89,NNW,346,2.0,4.0,85,0.00,,,0.00,Wunderground v.1.15,2013-06-14 09:59:00,
2013-06-14 06:04:00,64.5,60.2,29.89,NNW,336,3.0,4.0,86,0.00,,,0.00,Wunderground v.1.15,2013-06-14 10:04:00,
2013-06-14 06:09:00,64.4,60.1,29.89,NNW,335,6.0,7.0,86,0.00,,,0.00,Wunderground v.1.15,2013-06-14 10:09:00,
2013-06-14 06:14:00,64.8,60.2,29.90,NNW,337,3.0,7.0,85,0.00,,,0.00,Wunderground v.1.15,2013-06-14 10:14:00,
2013-06-14 06:19:00,64.5,60.2,29.90,NW,321,4.0,6.0,86,0.00,,,0.00,Wunderground v.1.15,2013-06-14 10:19:00,
2013-06-14 06:24:00,64.8,60.2,29.90,NNW,345,3.0,6.0,85,0.00,,,0.00,Wunderground v.1.15,2013-06-14 10:24:00,
2013-06-14 06:29:00,65.0,60.4,29.90,North,352,2.0,5.0,85,0.00,,,0.00,Wunderground v.1.15,2013-06-14 10:29:00,
2013-06-14 06:34:00,65.0,60.4,29.90,North,351,3.0,5.0,85,0.00,,,0.00,Wunderground v.1.15,2013-06-14 10:34:00,
2013-06-14 06:39:00,64.6,60.6,29.90,North,351,4.0,6.0,87,0.00,,,0.00,Wunderground v.1.15,2013-06-14 10:39:00,
2013-06-14 06:44:00,64.4,60.4,29.90,North,352,4.0,6.0,87,0.00,,,0.00,Wunderground v.1.15,2013-06-14 10:44:00,
2013-06-14 06:49:00,64.1,60.2,29.91,North,349,3.0,5.0,87,0.00,,,0.00,Wunderground v.1.15,2013-06-14 10:49:00,
2013-06-14 06:54:00,63.9,60.6,29.90,North,1,1.0,5.0,89,0.00,,,0.00,Wunderground v.1.15,2013-06-14 10:54:00,
2013-06-14 06:59:00,63.7,60.7,29.90,NE,52,0.0,5.0,90,0.00,,,0.00,Wunderground v.1.15,2013-06-14 10:59:00,
2013-06-14 07:04:00,63.7,60.4,29.90,North,4,5.0,6.0,89,0.00,,,0.00,Wunderground v.1.15,2013-06-14 11:04:00,
2013-06-14 07:09:00,63.4,60.1,29.91,North,7,4.0,8.0,89,0.00,,,0.00,Wunderground v.1.15,2013-06-14 11:09:00,
2013-06-14 07:14:00,63.2,60.2,29.90,North,6,4.0,8.0,90,0.00,,,0.00,Wunderground v.1.15,2013-06-14 11:14:00,
2013-06-14 07:19:00,63.1,60.1,29.91,North,10,5.0,6.0,90,0.00,,,0.00,Wunderground v.1.15,2013-06-14 11:19:00,
2013-06-14 07:24:00,63.2,60.2,29.91,NNW,333,2.0,6.0,90,0.00,,,0.00,Wunderground v.1.15,2013-06-14 11:24:00,
2013-06-14 07:29:00,63.5,60.5,29.91,North,353,3.0,4.0,90,0.00,,,0.00,Wunderground v.1.15,2013-06-14 11:29:00,
2013-06-14 07:34:00,63.8,60.5,29.91,North,6,1.0,5.0,89,0.00,,,0.00,Wunderground v.1.15,2013-06-14 11:34:00,
2013-06-14 07:39:00,64.1,60.8,29.91,NE,40,0.0,2.0,89,0.00,,,0.00,Wunderground v.1.15,2013-06-14 11:39:00,
2013-06-14 07:44:00,64.4,61.1,29.91,NNE,15,0.0,2.0,89,0.00,,,0.00,Wunderground v.1.15,2013-06-14 11:44:00,
2013-06-14 07:49:00,64.5,60.9,29.92,North,1,3.0,5.0,88,0.00,,,0.00,Wunderground v.1.15,2013-06-14 11:49:00,
2013-06-14 07:54:00,64.6,60.3,29.92,NW,325,2.0,8.0,86,0.00,,,0.00,Wunderground v.1.15,2013-06-14 11:54:00,
2013-06-14 07:59:00,64.8,60.5,29.92,NE,35,0.0,5.0,86,0.00,,,0.00,Wunderground v.1.15,2013-06-14 11:59:00,
2013-06-14 08:04:00,65.0,60.4,29.92,North,4,4.0,6.0,85,0.00,,,0.00,Wunderground v.1.15,2013-06-14 12:04:00,
2013-06-14 08:09:00,65.1,60.5,29.92,North,10,5.0,7.0,85,0.00,,,0.00,Wunderground v.1.15,2013-06-14 12:09:00,
2013-06-14 08:14:00,65.2,60.6,29.92,NNE,22,0.0,8.0,85,0.00,,,0.00,Wunderground v.1.15,2013-06-14 12:14:00,
2013-06-14 08:19:00,65.3,60.3,29.92,North,10,5.0,9.0,84,0.00,,,0.00,Wunderground v.1.15,2013-06-14 12:19:00,
2013-06-14 08:24:00,65.6,60.6,29.92,NE,43,1.0,9.0,84,0.00,,,0.00,Wunderground v.1.15,2013-06-14 12:24:00,
2013-06-14 08:29:00,65.9,60.6,29.92,North,351,4.0,6.0,83,0.00,,,0.00,Wunderground v.1.15,2013-06-14 12:29:00,
2013-06-14 08:34:00,66.0,61.0,29.92,North,350,2.0,6.0,84,0.00,,,0.00,Wunderground v.1.15,2013-06-14 12:34:00,
2013-06-14 08:39:00,66.2,60.9,29.92,NE,40,6.0,10.0,83,0.00,,,0.00,Wunderground v.1.15,2013-06-14 12:39:00,
2013-06-14 08:44:00,66.4,60.7,29.92,North,6,6.0,10.0,82,0.00,,,0.00,Wunderground v.1.15,2013-06-14 12:44:00,
2013-06-14 08:49:00,66.8,60.8,29.92,NNE,15,7.0,10.0,81,0.00,,,0.00,Wunderground v.1.15,2013-06-14 12:49:00,
2013-06-14 08:54:00,67.1,60.7,29.92,North,2,8.0,10.0,80,0.00,,,0.00,Wunderground v.1.15,2013-06-14 12:54:00,
2013-06-14 08:59:00,67.5,61.1,29.93,North,8,3.0,7.0,80,0.00,,,0.00,Wunderground v.1.15,2013-06-14 12:59:00,
2013-06-14 09:04:00,68.0,61.6,29.93,NE,48,1.0,7.0,80,0.00,,,0.00,Wunderground v.1.15,2013-06-14 13:04:00,
2013-06-14 09:09:00,68.5,61.4,29.93,North,352,3.0,7.0,78,0.00,,,0.00,Wunderground v.1.15,2013-06-14 13:09:00,
2013-06-14 09:14:00,68.7,61.2,29.93,North,359,7.0,8.0,77,0.00,,,0.00,Wunderground v.1.15,2013-06-14 13:14:00,
2013-06-14 09:19:00,69.0,61.5,29.94,North,355,6.0,7.0,77,0.00,,,0.00,Wunderground v.1.15,2013-06-14 13:19:00,
2013-06-14 09:24:00,69.1,60.8,29.94,NNW,341,4.0,8.0,75,0.00,,,0.00,Wunderground v.1.15,2013-06-14 13:24:00,
2013-06-14 09:29:00,69.2,60.6,29.93,North,6,8.0,9.0,74,0.00,,,0.00,Wunderground v.1.15,2013-06-14 13:29:00,
2013-06-14 09:34:00,69.5,60.8,29.94,North,5,7.0,10.0,74,0.00,,,0.00,Wunderground v.1.15,2013-06-14 13:34:00,
2013-06-14 09:39:00,69.7,60.7,29.94,North,6,3.0,10.0,73,0.00,,,0.00,Wunderground v.1.15,2013-06-14 13:39:00,
2013-06-14 09:44:00,70.1,60.7,29.94,North,5,5.0,11.0,72,0.00,,,0.00,Wunderground v.1.15,2013-06-14 13:44:00,
2013-06-14 09:49:00,70.7,61.2,29.94,NE,49,1.0,7.0,72,0.00,,,0.00,Wunderground v.1.15,2013-06-14 13:49:00,
2013-06-14 09:54:00,70.8,60.9,29.94,NW,305,0.0,11.0,71,0.00,,,0.00,Wunderground v.1.15,2013-06-14 13:54:00,
2013-06-14 09:59:00,70.9,61.4,29.94,NNW,347,6.0,10.0,72,0.00,,,0.00,Wunderground v.1.15,2013-06-14 13:59:00,
2013-06-14 10:04:00,71.0,61.1,29.94,North,6,9.0,12.0,71,0.00,,,0.00,Wunderground v.1.15,2013-06-14 14:04:00,
2013-06-14 10:09:00,71.3,61.0,29.94,North,7,6.0,9.0,70,0.00,,,0.00,Wunderground v.1.15,2013-06-14 14:09:00,
2013-06-14 10:14:00,71.7,61.0,29.94,NNE,13,8.0,10.0,69,0.00,,,0.00,Wunderground v.1.15,2013-06-14 14:14:00,
2013-06-14 10:19:00,71.7,61.0,29.94,North,356,5.0,10.0,69,0.00,,,0.00,Wunderground v.1.15,2013-06-14 14:19:00,
2013-06-14 10:24:00,72.1,61.4,29.94,NNE,20,7.0,10.0,69,0.00,,,0.00,Wunderground v.1.15,2013-06-14 14:24:00,
2013-06-14 10:29:00,72.3,61.1,29.94,NNW,343,6.0,8.0,68,0.00,,,0.00,Wunderground v.1.15,2013-06-14 14:29:00,
2013-06-14 10:34:00,72.5,60.9,29.94,NNE,13,10.0,11.0,67,0.00,,,0.00,Wunderground v.1.15,2013-06-14 14:34:00,
2013-06-14 10:39:00,72.6,60.2,29.94,North,1,12.0,14.0,65,0.00,,,0.00,Wunderground v.1.15,2013-06-14 14:39:00,
2013-06-14 10:44:00,73.0,61.0,29.94,NNW,347,5.0,14.0,66,0.00,,,0.00,Wunderground v.1.15,2013-06-14 14:44:00,
2013-06-14 10:49:00,73.3,60.8,29.93,NNW,342,8.0,12.0,65,0.00,,,0.00,Wunderground v.1.15,2013-06-14 14:49:00,
2013-06-14 10:54:00,73.3,60.8,29.94,North,4,9.0,12.0,65,0.00,,,0.00,Wunderground v.1.15,2013-06-14 14:54:00,
2013-06-14 10:59:00,73.2,60.7,29.94,North,4,9.0,11.0,65,0.00,,,0.00,Wunderground v.1.15,2013-06-14 14:59:00,
2013-06-14 11:04:00,73.6,60.2,29.93,NNE,12,5.0,12.0,63,0.00,,,0.00,Wunderground v.1.15,2013-06-14 15:04:00,
2013-06-14 11:09:00,73.9,59.6,29.93,NNW,338,7.0,9.0,61,0.00,,,0.00,Wunderground v.1.15,2013-06-14 15:09:00,
2013-06-14 11:14:00,74.0,59.7,29.93,North,352,9.0,11.0,61,0.00,,,0.00,Wunderground v.1.15,2013-06-14 15:14:00,
2013-06-14 11:20:00,74.0,58.8,29.94,NNW,347,7.0,15.0,59,0.00,,,0.00,Wunderground v.1.15,2013-06-14 15:20:00,
2013-06-14 11:25:00,74.1,58.9,29.94,NNW,346,9.0,16.0,59,0.00,,,0.00,Wunderground v.1.15,2013-06-14 15:25:00,
2013-06-14 11:30:00,74.3,58.6,29.94,NNE,19,6.0,16.0,58,0.00,,,0.00,Wunderground v.1.15,2013-06-14 15:30:00,
2013-06-14 11:35:00,74.8,57.5,29.94,North,349,8.0,16.0,55,0.00,,,0.00,Wunderground v.1.15,2013-06-14 15:35:00,
2013-06-14 11:40:00,74.7,58.0,29.94,North,354,12.0,16.0,56,0.00,,,0.00,Wunderground v.1.15,2013-06-14 15:40:00,
2013-06-14 11:45:00,74.6,57.9,29.94,North,360,11.0,16.0,56,0.00,,,0.00,Wunderground v.1.15,2013-06-14 15:45:00,
2013-06-14 11:50:00,74.8,57.0,29.94,North,359,11.0,14.0,54,0.00,,,0.00,Wunderground v.1.15,2013-06-14 15:50:00,
2013-06-14 11:55:00,74.9,57.6,29.94,North,6,10.0,15.0,55,0.00,,,0.00,Wunderground v.1.15,2013-06-14 15:55:00,
2013-06-14 12:00:00,75.2,57.4,29.94,North,356,12.0,14.0,54,0.00,,,0.00,Wunderground v.1.15,2013-06-14 16:00:00,
2013-06-14 12:05:00,75.1,56.3,29.94,North,355,10.0,17.0,52,0.00,,,0.00,Wunderground v.1.15,2013-06-14 16:05:00,
2013-06-14 12:10:00,75.4,56.5,29.94,North,11,10.0,16.0,52,0.00,,,0.00,Wunderground v.1.15,2013-06-14 16:10:00,
2013-06-14 12:15:00,75.5,57.7,29.94,North,349,9.0,16.0,54,0.00,,,0.00,Wunderground v.1.15,2013-06-14 16:15:00,
2013-06-14 12:20:00,75.6,57.8,29.94,North,3,10.0,13.0,54,0.00,,,0.00,Wunderground v.1.15,2013-06-14 16:20:00,
2013-06-14 12:25:00,75.5,58.2,29.94,North,8,10.0,14.0,55,0.00,,,0.00,Wunderground v.1.15,2013-06-14 16:25:00,
2013-06-14 12:30:00,76.0,57.6,29.94,North,9,10.0,15.0,53,0.00,,,0.00,Wunderground v.1.15,2013-06-14 16:30:00,
2013-06-14 12:35:00,75.8,57.4,29.94,North,8,7.0,15.0,53,0.00,,,0.00,Wunderground v.1.15,2013-06-14 16:35:00,
2013-06-14 12:40:00,76.6,57.7,29.94,NNE,20,1.0,13.0,52,0.00,,,0.00,Wunderground v.1.15,2013-06-14 16:40:00,
2013-06-14 12:45:00,77.1,57.0,29.94,SSE,167,1.0,13.0,50,0.00,,,0.00,Wunderground v.1.15,2013-06-14 16:45:00,
2013-06-14 12:50:00,77.9,57.2,29.94,NNE,12,7.0,10.0,49,0.00,,,0.00,Wunderground v.1.15,2013-06-14 16:50:00,
2013-06-14 12:55:00,77.8,56.5,29.94,North,357,12.0,14.0,48,0.00,,,0.00,Wunderground v.1.15,2013-06-14 16:55:00,
2013-06-14 13:00:00,77.0,55.8,29.94,North,5,11.0,17.0,48,0.00,,,0.00,Wunderground v.1.15,2013-06-14 17:00:00,
2013-06-14 13:05:00,76.7,56.1,29.94,North,8,11.0,17.0,49,0.00,,,0.00,Wunderground v.1.15,2013-06-14 17:05:00,
2013-06-14 13:10:00,76.9,56.3,29.94,NNE,12,13.0,13.0,49,0.00,,,0.00,Wunderground v.1.15,2013-06-14 17:10:00,
2013-06-14 13:15:00,77.0,56.4,29.94,North,360,13.0,15.0,49,0.00,,,0.00,Wunderground v.1.15,2013-06-14 17:15:00,
2013-06-14 13:20:00,76.9,55.7,29.94,North,356,9.0,15.0,48,0.00,,,0.00,Wunderground v.1.15,2013-06-14 17:20:00,
2013-06-14 13:25:00,77.1,57.0,29.94,North,2,11.0,16.0,50,0.00,,,0.00,Wunderground v.1.15,2013-06-14 17:25:00,
2013-06-14 13:30:00,77.1,55.9,29.94,North,358,11.0,17.0,48,0.00,,,0.00,Wunderground v.1.15,2013-06-14 17:30:00,
2013-06-14 13:35:00,77.2,56.0,29.94,North,6,11.0,17.0,48,0.00,,,0.00,Wunderground v.1.15,2013-06-14 17:35:00,
2013-06-14 13:40:00,77.4,55.6,29.95,North,11,16.0,16.0,47,0.00,,,0.00,Wunderground v.1.15,2013-06-14 17:40:00,
2013-06-14 13:45:00,77.3,55.5,29.95,NNW,345,10.0,17.0,47,0.00,,,0.00,Wunderground v.1.15,2013-06-14 17:45:00,
2013-06-14 13:50:00,77.6,54.6,29.95,NNW,347,11.0,15.0,45,0.00,,,0.00,Wunderground v.1.15,2013-06-14 17:50:00,
2013-06-14 13:55:00,77.5,56.8,29.95,NNE,23,10.0,19.0,49,0.00,,,0.00,Wunderground v.1.15,2013-06-14 17:55:00,
2013-06-14 14:00:00,77.7,56.4,29.95,North,351,5.0,11.0,48,0.00,,,0.00,Wunderground v.1.15,2013-06-14 18:00:00,
2013-06-14 14:05:00,78.0,56.1,29.94,North,6,7.0,13.0,47,0.00,,,0.00,Wunderground v.1.15,2013-06-14 18:05:00,
2013-06-14 14:10:00,78.0,56.1,29.94,North,350,12.0,13.0,47,0.00,,,0.00,Wunderground v.1.15,2013-06-14 18:10:00,
2013-06-14 14:15:00,78.3,56.4,29.94,North,4,3.0,15.0,47,0.00,,,0.00,Wunderground v.1.15,2013-06-14 18:15:00,
2013-06-14 14:20:00,78.8,56.3,29.93,NNE,25,6.0,11.0,46,0.00,,,0.00,Wunderground v.1.15,2013-06-14 18:20:00,
2013-06-14 14:25:00,79.1,56.5,29.93,WNW,288,0.0,11.0,46,0.00,,,0.00,Wunderground v.1.15,2013-06-14 18:25:00,
2013-06-14 14:30:00,79.2,56.6,29.93,NNW,340,7.0,13.0,46,0.00,,,0.00,Wunderground v.1.15,2013-06-14 18:30:00,
2013-06-14 14:35:00,78.8,57.4,29.93,North,357,11.0,13.0,48,0.00,,,0.00,Wunderground v.1.15,2013-06-14 18:35:00,
2013-06-14 14:40:00,78.9,57.0,29.93,ENE,58,1.0,15.0,47,0.00,,,0.00,Wunderground v.1.15,2013-06-14 18:40:00,
2013-06-14 14:45:00,79.6,57.6,29.93,NE,41,2.0,15.0,47,0.00,,,0.00,Wunderground v.1.15,2013-06-14 18:45:00,
2013-06-14 14:50:00,80.1,55.6,29.93,NNE,28,3.0,7.0,43,0.00,,,0.00,Wunderground v.1.15,2013-06-14 18:50:00,
2013-06-14 14:55:00,80.4,55.2,29.92,SSW,210,0.0,7.0,42,0.00,,,0.00,Wunderground v.1.15,2013-06-14 18:55:00,
2013-06-14 15:00:00,80.5,55.3,29.92,North,350,2.0,8.0,42,0.00,,,0.00,Wunderground v.1.15,2013-06-14 19:00:00,
2013-06-14 15:05:00,80.3,55.1,29.92,North,354,3.0,11.0,42,0.00,,,0.00,Wunderground v.1.15,2013-06-14 19:05:00,
2013-06-14 15:10:00,80.7,54.8,29.92,East,86,3.0,9.0,41,0.00,,,0.00,Wunderground v.1.15,2013-06-14 19:10:00,
2013-06-14 15:15:00,80.7,54.8,29.92,North,356,4.0,9.0,41,0.00,,,0.00,Wunderground v.1.15,2013-06-14 19:15:00,
2013-06-14 15:20:00,81.0,54.4,29.92,North,4,3.0,11.0,40,0.00,,,0.00,Wunderground v.1.15,2013-06-14 19:20:00,
2013-06-14 15:25:00,81.0,54.4,29.92,NNE,19,2.0,14.0,40,0.00,,,0.00,Wunderground v.1.15,2013-06-14 19:25:00,
2013-06-14 15:30:00,81.0,55.1,29.92,ESE,110,2.0,7.0,41,0.00,,,0.00,Wunderground v.1.15,2013-06-14 19:30:00,
2013-06-14 15:35:00,81.0,55.7,29.91,NNE,19,7.0,13.0,42,0.00,,,0.00,Wunderground v.1.15,2013-06-14 19:35:00,
2013-06-14 15:40:00,81.0,56.4,29.91,NNW,328,3.0,8.0,43,0.00,,,0.00,Wunderground v.1.15,2013-06-14 19:40:00,
2013-06-14 15:45:00,80.8,55.6,29.91,East,84,3.0,13.0,42,0.00,,,0.00,Wunderground v.1.15,2013-06-14 19:45:00,
2013-06-14 15:50:00,81.4,56.1,29.91,North,6,5.0,7.0,42,0.00,,,0.00,Wunderground v.1.15,2013-06-14 19:50:00,
2013-06-14 15:55:00,81.4,56.8,29.92,North,1,2.0,9.0,43,0.00,,,0.00,Wunderground v.1.15,2013-06-14 19:55:00,
2013-06-14 16:00:00,81.5,57.5,29.91,WNW,290,3.0,8.0,44,0.00,,,0.00,Wunderground v.1.15,2013-06-14 20:00:00,
2013-06-14 16:05:00,81.3,56.7,29.91,NNE,13,4.0,13.0,43,0.00,,,0.00,Wunderground v.1.15,2013-06-14 20:05:00,
2013-06-14 16:10:00,81.3,57.3,29.91,ESE,106,4.0,10.0,44,0.00,,,0.00,Wunderground v.1.15,2013-06-14 20:10:00,
2013-06-14 16:15:00,81.9,54.5,29.91,NNW,345,4.0,10.0,39,0.00,,,0.00,Wunderground v.1.15,2013-06-14 20:15:00,
2013-06-14 16:20:00,82.3,55.6,29.91,West,263,7.0,8.0,40,0.00,,,0.00,Wunderground v.1.15,2013-06-14 20:20:00,
2013-06-14 16:25:00,82.4,55.0,29.91,North,4,3.0,8.0,39,0.00,,,0.00,Wunderground v.1.15,2013-06-14 20:25:00,
2013-06-14 16:30:00,81.9,53.8,29.91,North,359,14.0,14.0,38,0.00,,,0.00,Wunderground v.1.15,2013-06-14 20:30:00,
2013-06-14 16:35:00,81.4,54.1,29.91,North,4,12.0,17.0,39,0.00,,,0.00,Wunderground v.1.15,2013-06-14 20:35:00,
2013-06-14 16:40:00,80.7,54.8,29.91,NNW,330,7.0,17.0,41,0.00,,,0.00,Wunderground v.1.15,2013-06-14 20:40:00,
2013-06-14 16:45:00,81.0,55.7,29.92,North,10,16.0,17.0,42,0.00,,,0.00,Wunderground v.1.15,2013-06-14 20:45:00,
2013-06-14 16:50:00,80.9,54.3,29.91,North,8,5.0,16.0,40,0.00,,,0.00,Wunderground v.1.15,2013-06-14 20:50:00,
2013-06-14 16:55:00,81.4,55.4,29.91,ENE,57,0.0,16.0,41,0.00,,,0.00,Wunderground v.1.15,2013-06-14 20:55:00,
2013-06-14 17:00:00,81.9,55.9,29.91,North,355,5.0,9.0,41,0.00,,,0.00,Wunderground v.1.15,2013-06-14 21:00:00,
2013-06-14 17:05:00,81.6,55.6,29.91,North,351,7.0,13.0,41,0.00,,,0.00,Wunderground v.1.15,2013-06-14 21:05:00,
2013-06-14 17:10:00,81.3,56.7,29.92,North,357,7.0,14.0,43,0.00,,,0.00,Wunderground v.1.15,2013-06-14 21:10:00,
2013-06-14 17:15:00,81.9,55.2,29.92,NNW,340,9.0,15.0,40,0.00,,,0.00,Wunderground v.1.15,2013-06-14 21:15:00,
2013-06-14 17:20:00,81.7,56.4,29.92,ENE,64,4.0,15.0,42,0.00,,,0.00,Wunderground v.1.15,2013-06-14 21:20:00,
2013-06-14 17:25:00,81.7,55.0,29.91,NNW,333,4.0,16.0,40,0.00,,,0.00,Wunderground v.1.15,2013-06-14 21:25:00,
2013-06-14 17:30:00,81.7,55.0,29.91,ENE,78,2.0,16.0,40,0.00,,,0.00,Wunderground v.1.15,2013-06-14 21:30:00,
2013-06-14 17:35:00,81.8,55.1,29.92,North,360,8.0,16.0,40,0.00,,,0.00,Wunderground v.1.15,2013-06-14 21:35:00,
2013-06-14 17:40:00,81.8,54.4,29.91,NE,34,8.0,14.0,39,0.00,,,0.00,Wunderground v.1.15,2013-06-14 21:40:00,
2013-06-14 17:45:00,82.0,54.6,29.91,North,1,8.0,18.0,39,0.00,,,0.00,Wunderground v.1.15,2013-06-14 21:45:00,
2013-06-14 17:50:00,82.1,55.4,29.91,North,3,6.0,12.0,40,0.00,,,0.00,Wunderground v.1.15,2013-06-14 21:50:00,
2013-06-14 17:55:00,82.6,54.4,29.91,North,354,4.0,13.0,38,0.00,,,0.00,Wunderground v.1.15,2013-06-14 21:55:00,
2013-06-14 18:00:00,82.3,53.4,29.91,ENE,72,3.0,16.0,37,0.00,,,0.00,Wunderground v.1.15,2013-06-14 22:00:00,
2013-06-14 18:05:00,82.3,51.1,29.90,ENE,60,2.0,16.0,34,0.00,,,0.00,Wunderground v.1.15,2013-06-14 22:05:00,
2013-06-14 18:10:00,82.3,51.1,29.90,NNW,340,10.0,18.0,34,0.00,,,0.00,Wunderground v.1.15,2013-06-14 22:10:00,
2013-06-14 18:15:00,82.0,52.4,29.91,North,2,16.0,18.0,36,0.00,,,0.00,Wunderground v.1.15,2013-06-14 22:15:00,
2013-06-14 18:20:00,81.6,52.8,29.91,ENE,71,4.0,17.0,37,0.00,,,0.00,Wunderground v.1.15,2013-06-14 22:20:00,
2013-06-14 18:25:00,81.7,52.1,29.90,North,3,10.0,17.0,36,0.00,,,0.00,Wunderground v.1.15,2013-06-14 22:25:00,
2013-06-14 18:30:00,81.6,52.8,29.91,NNW,339,10.0,15.0,37,0.00,,,0.00,Wunderground v.1.15,2013-06-14 22:30:00,
2013-06-14 18:35:00,81.7,52.9,29.91,North,10,9.0,15.0,37,0.00,,,0.00,Wunderground v.1.15,2013-06-14 22:35:00,
2013-06-14 18:40:00,82.0,53.9,29.91,North,8,13.0,13.0,38,0.00,,,0.00,Wunderground v.1.15,2013-06-14 22:40:00,
2013-06-14 18:45:00,81.8,53.0,29.91,ESE,104,3.0,14.0,37,0.00,,,0.00,Wunderground v.1.15,2013-06-14 22:45:00,
2013-06-14 18:50:00,81.9,53.1,29.91,NNE,25,6.0,15.0,37,0.00,,,0.00,Wunderground v.1.15,2013-06-14 22:50:00,
2013-06-14 18:55:00,82.0,52.4,29.91,NNE,29,6.0,15.0,36,0.00,,,0.00,Wunderground v.1.15,2013-06-14 22:55:00,
2013-06-14 19:00:00,82.2,54.1,29.92,ESE,110,6.0,11.0,38,0.00,,,0.00,Wunderground v.1.15,2013-06-14 23:00:00,
2013-06-14 19:05:00,82.3,52.7,29.92,NNW,336,2.0,11.0,36,0.00,,,0.00,Wunderground v.1.15,2013-06-14 23:05:00,
2013-06-14 19:10:00,82.3,54.2,29.92,NW,321,2.0,7.0,38,0.00,,,0.00,Wunderground v.1.15,2013-06-14 23:10:00,
2013-06-14 19:15:00,82.0,55.3,29.92,North,9,6.0,11.0,40,0.00,,,0.00,Wunderground v.1.15,2013-06-14 23:15:00,
2013-06-14 19:20:00,82.4,55.7,29.92,East,92,2.0,9.0,40,0.00,,,0.00,Wunderground v.1.15,2013-06-14 23:20:00,
2013-06-14 19:25:00,82.6,55.1,29.92,NNE,21,2.0,9.0,39,0.00,,,0.00,Wunderground v.1.15,2013-06-14 23:25:00,
2013-06-14 19:30:00,82.5,55.7,29.92,SE,141,2.0,9.0,40,0.00,,,0.00,Wunderground v.1.15,2013-06-14 23:30:00,
2013-06-14 19:35:00,82.3,55.6,29.92,ESE,103,2.0,9.0,40,0.00,,,0.00,Wunderground v.1.15,2013-06-14 23:35:00,
2013-06-14 19:40:00,82.1,56.1,29.92,NE,36,1.0,5.0,41,0.00,,,0.00,Wunderground v.1.15,2013-06-14 23:40:00,
2013-06-14 19:45:00,81.9,55.9,29.92,NW,306,3.0,6.0,41,0.00,,,0.00,Wunderground v.1.15,2013-06-14 23:45:00,
2013-06-14 19:50:00,81.6,55.6,29.92,North,354,3.0,6.0,41,0.00,,,0.00,Wunderground v.1.15,2013-06-14 23:50:00,
2013-06-14 19:55:00,81.4,56.1,29.92,NW,325,2.0,7.0,42,0.00,,,0.00,Wunderground v.1.15,2013-06-14 23:55:00,
2013-06-14 20:00:00,81.1,56.5,29.92,WNW,282,1.0,5.0,43,0.00,,,0.00,Wunderground v.1.15,2013-06-15 00:00:00,
2013-06-14 20:05:00,80.9,56.3,29.92,NW,320,1.0,7.0,43,0.00,,,0.00,Wunderground v.1.15,2013-06-15 00:05:00,
2013-06-14 20:10:00,80.7,56.8,29.92,North,2,0.0,6.0,44,0.00,,,0.00,Wunderground v.1.15,2013-06-15 00:10:00,
2013-06-14 20:15:00,80.2,56.3,29.93,North,354,1.0,6.0,44,0.00,,,0.00,Wunderground v.1.15,2013-06-15 00:15:00,
2013-06-14 20:20:00,79.7,57.1,29.93,ENE,74,0.0,4.0,46,0.00,,,0.00,Wunderground v.1.15,2013-06-15 00:20:00,
2013-06-14 20:25:00,79.4,56.8,29.93,NNE,32,0.0,4.0,46,0.00,,,0.00,Wunderground v.1.15,2013-06-15 00:25:00,
2013-06-14 20:30:00,79.4,57.4,29.93,NNE,23,0.0,2.0,47,0.00,,,0.00,Wunderground v.1.15,2013-06-15 00:30:00,
2013-06-14 20:35:00,79.5,57.5,29.93,North,358,0.0,3.0,47,0.00,,,0.00,Wunderground v.1.15,2013-06-15 00:35:00,
2013-06-14 20:40:00,79.3,57.3,29.93,North,352,1.0,2.0,47,0.00,,,0.00,Wunderground v.1.15,2013-06-15 00:40:00,
2013-06-14 20:45:00,78.9,58.1,29.93,North,5,0.0,3.0,49,0.00,,,0.00,Wunderground v.1.15,2013-06-15 00:45:00,
2013-06-14 20:50:00,78.4,58.2,29.94,North,352,0.0,2.0,50,0.00,,,0.00,Wunderground v.1.15,2013-06-15 00:50:00,
2013-06-14 20:55:00,77.9,58.9,29.94,ENE,61,1.0,3.0,52,0.00,,,0.00,Wunderground v.1.15,2013-06-15 00:55:00,
2013-06-14 21:00:00,77.2,58.2,29.94,NNE,15,3.0,5.0,52,0.00,,,0.00,Wunderground v.1.15,2013-06-15 01:00:00,
2013-06-14 21:05:00,76.7,58.8,29.94,NNE,27,1.0,5.0,54,0.00,,,0.00,Wunderground v.1.15,2013-06-15 01:05:00,
2013-06-14 21:10:00,76.5,58.6,29.94,NNE,15,0.0,4.0,54,0.00,,,0.00,Wunderground v.1.15,2013-06-15 01:10:00,
2013-06-14 21:15:00,76.3,59.4,29.95,NNE,24,2.0,4.0,56,0.00,,,0.00,Wunderground v.1.15,2013-06-15 01:15:00,
2013-06-14 21:20:00,75.9,59.6,29.95,North,349,2.0,4.0,57,0.00,,,0.00,Wunderground v.1.15,2013-06-15 01:20:00,
2013-06-14 21:25:00,75.5,61.1,29.95,NNE,22,0.0,4.0,61,0.00,,,0.00,Wunderground v.1.15,2013-06-15 01:25:00,
2013-06-14 21:30:00,75.0,61.1,29.95,North,352,1.0,2.0,62,0.00,,,0.00,Wunderground v.1.15,2013-06-15 01:30:00,
2013-06-14 21:35:00,74.5,60.6,29.95,NNE,32,0.0,4.0,62,0.00,,,0.00,Wunderground v.1.15,2013-06-15 01:35:00,
2013-06-14 21:40:00,74.2,60.8,29.95,North,359,1.0,3.0,63,0.00,,,0.00,Wunderground v.1.15,2013-06-15 01:40:00,
2013-06-14 21:45:00,73.9,60.1,29.96,NNE,18,1.0,3.0,62,0.00,,,0.00,Wunderground v.1.15,2013-06-15 01:45:00,
2013-06-14 21:50:00,73.7,60.8,29.96,NNE,20,0.0,1.0,64,0.00,,,0.00,Wunderground v.1.15,2013-06-15 01:50:00,
2013-06-14 21:55:00,73.5,61.9,29.96,NNE,20,0.0,1.0,67,0.00,,,0.00,Wunderground v.1.15,2013-06-15 01:55:00,
2013-06-14 22:00:00,73.2,59.8,29.96,NE,46,0.0,1.0,63,0.00,,,0.00,Wunderground v.1.15,2013-06-15 02:00:00,
2013-06-14 22:05:00,73.2,60.7,29.96,NE,49,0.0,2.0,65,0.00,,,0.00,Wunderground v.1.15,2013-06-15 02:05:00,
2013-06-14 22:10:00,73.1,60.6,29.96,NNE,31,1.0,2.0,65,0.00,,,0.00,Wunderground v.1.15,2013-06-15 02:10:00,
2013-06-14 22:15:00,73.0,61.0,29.95,NNW,337,0.0,2.0,66,0.00,,,0.00,Wunderground v.1.15,2013-06-15 02:15:00,
2013-06-14 22:20:00,72.6,61.0,29.96,NNE,28,0.0,1.0,67,0.00,,,0.00,Wunderground v.1.15,2013-06-15 02:20:00,
2013-06-14 22:25:00,72.4,59.5,29.96,NNE,17,2.0,4.0,64,0.00,,,0.00,Wunderground v.1.15,2013-06-15 02:25:00,
2013-06-14 22:30:00,72.4,61.2,29.96,NE,34,1.0,2.0,68,0.00,,,0.00,Wunderground v.1.15,2013-06-15 02:30:00,
2013-06-14 22:35:00,72.0,60.4,29.96,NNE,27,1.0,2.0,67,0.00,,,0.00,Wunderground v.1.15,2013-06-15 02:35:00,
2013-06-14 22:40:00,71.7,61.0,29.96,North,6,5.0,6.0,69,0.00,,,0.00,Wunderground v.1.15,2013-06-15 02:40:00,
2013-06-14 22:45:00,70.8,62.1,29.96,NNE,27,1.0,6.0,74,0.00,,,0.00,Wunderground v.1.15,2013-06-15 02:45:00,
2013-06-14 22:50:00,70.5,61.4,29.96,NNE,30,0.0,3.0,73,0.00,,,0.00,Wunderground v.1.15,2013-06-15 02:50:00,
2013-06-14 22:55:00,70.5,60.2,29.97,NNE,28,1.0,3.0,70,0.00,,,0.00,Wunderground v.1.15,2013-06-15 02:55:00,
2013-06-14 23:00:00,70.6,60.7,29.97,NNE,21,0.0,1.0,71,0.00,,,0.00,Wunderground v.1.15,2013-06-15 03:00:00,
2013-06-14 23:05:00,70.4,61.3,29.98,NNE,20,0.0,2.0,73,0.00,,,0.00,Wunderground v.1.15,2013-06-15 03:05:00,
2013-06-14 23:10:00,69.8,61.1,29.98,North,10,0.0,3.0,74,0.00,,,0.00,Wunderground v.1.15,2013-06-15 03:10:00,
2013-06-14 23:15:00,69.6,61.7,29.98,NE,41,1.0,3.0,76,0.00,,,0.00,Wunderground v.1.15,2013-06-15 03:15:00,
2013-06-14 23:20:00,69.6,62.1,29.98,NNE,21,0.0,2.0,77,0.00,,,0.00,Wunderground v.1.15,2013-06-15 03:20:00,
2013-06-14 23:25:00,69.5,61.6,29.98,NNE,15,0.0,3.0,76,0.00,,,0.00,Wunderground v.1.15,2013-06-15 03:25:00,
2013-06-14 23:30:00,69.4,60.8,29.99,East,89,0.0,1.0,74,0.00,,,0.00,Wunderground v.1.15,2013-06-15 03:30:00,
2013-06-14 23:35:00,69.2,61.3,29.99,NE,40,0.0,1.0,76,0.00,,,0.00,Wunderground v.1.15,2013-06-15 03:35:00,
2013-06-14 23:40:00,68.9,61.4,29.99,NNE,29,0.0,1.0,77,0.00,,,0.00,Wunderground v.1.15,2013-06-15 03:40:00,
2013-06-14 23:45:00,68.5,60.3,29.99,NNE,18,3.0,5.0,75,0.00,,,0.00,Wunderground v.1.15,2013-06-15 03:45:00,
2013-06-14 23:50:00,68.4,60.5,29.99,NNE,30,3.0,6.0,76,0.00,,,0.00,Wunderground v.1.15,2013-06-15 03:50:00,
2013-06-14 23:55:00,68.5,59.5,29.99,NNE,16,4.0,6.0,73,0.00,,,0.00,Wunderground v.1.15,2013-06-15 03:55:00,